Time;durP1;ratioP1;P1;durP2;ratioP2;P2;SDS_P1;SDS_P2;PMS_P1;PMS_P2;Temp;Humidity;BMP_temperature;BMP_pressure;BME280_temperature;BME280_humidity;BME280_pressure;Samples;Min_cycle;Max_cycle;Signal;HPM_P1;HPM_P2
2023/07/06 00:07:00;;;;;;;8.20;4.50;;;;;;;15.97;72.60;100242.79;125570;1296;639444;-65
2023/07/06 00:15:07;;;;;;;11.30;4.80;;;;;;;15.79;72.78;100248.00;127574;1303;115340;-66
2023/07/06 00:19:10;;;;;;;13.00;4.90;;;;;;;15.70;72.63;100249.05;122791;1289;5440136;-65
2023/07/06 00:35:59;;;;;;;10.60;4.60;;;;;;;15.44;73.25;100263.81;128086;1277;128998;-63
2023/07/06 00:40:01;;;;;;;7.50;4.80;;;;;;;15.43;73.54;100262.45;127563;1286;115276;-62
2023/07/06 00:48:08;;;;;;;7.20;4.40;;;;;;;15.46;73.56;100261.20;126399;1291;114881;-63
2023/07/06 00:56:16;;;;;;;11.90;4.40;;;;;;;15.39;73.26;100268.69;126018;1313;114958;-62
2023/07/06 01:04:16;;;;;;;7.10;4.60;;;;;;;15.23;72.81;100275.17;124243;1313;115492;-62
2023/07/06 01:13:15;;;;;;;9.70;4.80;;;;;;;15.09;72.31;100283.71;125645;1311;639510;-62
2023/07/06 01:29:16;;;;;;;7.40;4.30;;;;;;;14.68;72.07;100284.10;126997;1295;114832;-63
2023/07/06 01:37:43;;;;;;;11.00;4.40;;;;;;;14.50;72.21;100281.20;127713;1290;128733;-66
2023/07/06 01:46:19;;;;;;;7.80;3.90;;;;;;;14.30;72.23;100278.52;125661;1301;639556;-65
2023/07/06 01:58:43;;;;;;;7.10;4.60;;;;;;;14.00;72.45;100288.88;122904;1289;5606928;-64
2023/07/06 02:02:47;;;;;;;8.50;4.20;;;;;;;13.92;72.61;100285.48;127326;1304;115015;-66
2023/07/06 02:14:53;;;;;;;6.60;3.70;;;;;;;13.68;72.83;100291.27;125001;1302;129774;-64
2023/07/06 02:27:23;;;;;;;8.70;4.50;;;;;;;13.52;72.94;100308.90;126193;1297;638470;-62
2023/07/06 02:35:29;;;;;;;4.60;3.70;;;;;;;13.42;73.12;100308.64;127837;1284;115430;-65
2023/07/06 02:43:32;;;;;;;6.70;4.00;;;;;;;13.33;73.36;100317.58;125771;1298;114885;-66
2023/07/06 02:47:36;;;;;;;9.20;4.40;;;;;;;13.30;73.31;100321.38;125265;1304;115031;-65
2023/07/06 02:51:35;;;;;;;7.70;4.20;;;;;;;13.27;73.56;100326.21;124782;1326;128942;-65
2023/07/06 02:55:38;;;;;;;10.00;4.00;;;;;;;13.26;73.74;100328.63;124416;1330;115244;-67
2023/07/06 02:59:39;;;;;;;9.80;4.30;;;;;;;13.26;74.03;100333.61;124497;1309;114967;-66
2023/07/06 03:03:39;;;;;;;9.00;4.50;;;;;;;13.30;74.23;100335.00;123780;1337;114982;-66
2023/07/06 03:20:23;;;;;;;6.60;4.00;;;;;;;13.62;74.29;100331.64;125657;1304;636057;-66
2023/07/06 03:24:25;;;;;;;8.50;4.30;;;;;;;13.71;74.49;100324.48;127572;1285;128813;-66
2023/07/06 03:33:02;;;;;;;7.10;4.00;;;;;;;13.97;75.07;100330.52;125563;1304;639355;-62
2023/07/06 03:36:56;;;;;;;9.70;4.20;;;;;;;14.12;74.92;100345.21;127732;1285;127797;-64
2023/07/06 03:41:03;;;;;;;9.90;3.80;;;;;;;14.27;74.93;100346.98;127486;1302;115489;-61
2023/07/06 03:45:05;;;;;;;10.50;5.20;;;;;;;14.42;74.76;100348.31;123331;1283;5447625;-61
2023/07/06 03:49:03;;;;;;;9.00;4.20;;;;;;;14.55;74.07;100351.62;127260;1306;114860;-63
2023/07/06 04:05:36;;;;;;;5.50;4.10;;;;;;;15.13;73.99;100378.04;126024;1299;637885;-62
2023/07/06 04:09:39;;;;;;;7.80;4.30;;;;;;;15.29;73.55;100378.98;129041;1270;129348;-61
2023/07/06 04:17:47;;;;;;;7.40;4.00;;;;;;;15.75;73.23;100379.25;123191;1287;5463194;-60
2023/07/06 04:21:46;;;;;;;7.50;4.30;;;;;;;16.03;72.61;100389.77;125206;1320;114923;-61
2023/07/06 04:30:21;;;;;;;11.50;4.10;;;;;;;16.56;71.65;100389.55;125655;1301;641674;-63
2023/07/06 04:34:12;;;;;;;6.10;4.30;;;;;;;16.69;71.07;100396.71;128611;1272;128685;-62
2023/07/06 04:38:09;;;;;;;;;;;;;;;;;;;;;
2023/07/06 04:42:11;;;;;;;6.10;4.20;;;;;;;16.79;70.80;100408.25;123319;1306;5418303;-62
2023/07/06 04:50:30;;;;;;;8.00;5.10;;;;;;;16.88;69.87;100410.80;125399;1312;638463;-60
2023/07/06 04:54:31;;;;;;;12.50;4.90;;;;;;;16.90;69.75;100414.08;128251;1279;128451;-60
2023/07/06 04:58:33;;;;;;;8.20;5.20;;;;;;;16.93;69.47;100408.64;127717;1302;115258;-66
2023/07/06 05:02:29;;;;;;;;;;;;;;;;;;;;;
2023/07/06 05:06:13;;;;;;;13.60;5.90;;;;;;;17.03;69.15;100417.55;125614;1317;116610;-67
2023/07/06 05:10:15;;;;;;;8.70;4.90;;;;;;;17.13;69.14;100427.92;125214;1305;116597;-65
2023/07/06 05:14:16;;;;;;;11.00;6.10;;;;;;;17.24;68.85;100434.55;124822;1326;114963;-65
2023/07/06 05:18:19;;;;;;;9.90;5.10;;;;;;;17.31;68.35;100444.83;124834;1318;128736;-67
2023/07/06 05:22:19;;;;;;;9.00;5.40;;;;;;;17.41;68.34;100451.42;124832;1305;115270;-65
2023/07/06 05:26:33;;;;;;;9.60;4.70;;;;;;;17.52;68.34;100451.20;124200;1313;114922;-65
2023/07/06 05:30:28;;;;;;;7.80;5.10;;;;;;;17.63;68.28;100450.36;124720;1329;115273;-65
2023/07/06 05:34:22;;;;;;;8.40;4.70;;;;;;;17.73;67.78;100443.61;123963;1329;115180;-66
2023/07/06 05:50:29;;;;;;;10.60;6.10;;;;;;;18.10;66.98;100448.20;125020;1299;114968;-65
2023/07/06 05:54:30;;;;;;;8.70;4.70;;;;;;;18.20;66.47;100453.93;125368;1322;114977;-66
2023/07/06 06:02:33;;;;;;;8.70;5.00;;;;;;;18.33;66.19;100460.48;124908;1322;115348;-65
2023/07/06 06:10:36;;;;;;;11.50;5.70;;;;;;;18.42;65.53;100452.04;124745;1324;114928;-66
2023/07/06 06:14:37;;;;;;;9.20;5.60;;;;;;;18.49;65.26;100452.73;125195;1324;115228;-67
2023/07/06 06:18:39;;;;;;;7.60;4.70;;;;;;;18.58;65.36;100456.70;124409;1326;129874;-65
2023/07/06 06:22:40;;;;;;;9.10;5.20;;;;;;;18.76;65.25;100460.15;124762;1307;115022;-66
2023/07/06 06:26:42;;;;;;;6.90;4.50;;;;;;;19.13;65.43;100456.20;124024;1314;114897;-66
2023/07/06 06:30:43;;;;;;;7.70;5.00;;;;;;;19.62;64.77;100453.40;124066;1327;114926;-67
2023/07/06 06:38:46;;;;;;;10.60;4.30;;;;;;;20.41;62.95;100461.52;124547;1307;128887;-65
2023/07/06 06:42:18;;;;;;;7.90;4.20;;;;;;;20.86;62.10;100459.88;124449;1314;115339;-65
2023/07/06 06:46:10;;;;;;;;;;;;;;;;;;;;;
2023/07/06 06:49:54;;;;;;;8.50;4.80;;;;;;;21.38;60.36;100474.44;124496;1329;114891;-65
2023/07/06 06:53:32;;;;;;;;;;;;;;;;;;;;;
2023/07/06 06:57:31;;;;;;;;;;;;;;;;;;;;;
2023/07/06 07:01:04;;;;;;;5.70;4.20;;;;;;;21.84;58.45;100476.15;128275;1275;128003;-66
2023/07/06 07:05:00;;;;;;;;;;;;;;;;;;;;;
2023/07/06 07:09:05;;;;;;;5.50;3.90;;;;;;;22.85;58.05;100479.08;128610;1275;114856;-64
2023/07/06 07:13:08;;;;;;;10.60;4.80;;;;;;;24.07;56.68;100473.59;123499;1286;114947;-64
2023/07/06 07:17:10;;;;;;;6.40;3.90;;;;;;;25.11;54.99;100475.47;125948;1316;114988;-66
2023/07/06 07:21:12;;;;;;;6.60;3.90;;;;;;;25.97;53.35;100471.27;125446;1299;114933;-66
2023/07/06 07:24:59;;;;;;;7.00;3.60;;;;;;;27.04;52.51;100469.69;124136;1314;130303;-67
2023/07/06 07:33:19;;;;;;;9.60;4.10;;;;;;;28.88;49.93;100466.11;125672;1301;638950;-64
2023/07/06 07:37:15;;;;;;;;;;;;;;;;;;;;;
2023/07/06 07:41:11;;;;;;;8.50;3.60;;;;;;;30.42;46.75;100466.39;127238;1286;114865;-67
2023/07/06 07:45:07;;;;;;;;;;;;;;;;;;;;;
2023/07/06 07:53:00;;;;;;;6.40;4.00;;;;;;;32.15;42.77;100462.17;126058;1315;114929;-68
2023/07/06 08:01:06;;;;;;;6.80;3.30;;;;;;;32.76;39.41;100462.01;126470;1295;635925;-65
2023/07/06 08:13:06;;;;;;;;;;;;;;;;;;;;;
2023/07/06 08:17:14;;;;;;;;;;;;;;;;;;;;;
2023/07/06 08:25:19;;;;;;;6.50;3.20;;;;;;;33.38;34.19;100465.58;125235;1306;121066;-66
2023/07/06 08:33:47;;;;;;;6.30;3.20;;;;;;;33.53;32.10;100459.77;126010;1297;636504;-65
2023/07/06 08:37:43;;;;;;;;;;;;;;;;;;;;;
2023/07/06 08:41:39;;;;;;;;;;;;;;;;;;;;;
2023/07/06 08:45:43;;;;;;;8.90;2.70;;;;;;;33.48;31.25;100467.33;123897;1276;5760372;-66
2023/07/06 08:49:52;;;;;;;3.90;2.90;;;;;;;33.47;30.72;100466.64;128158;1287;114780;-66
2023/07/06 08:53:56;;;;;;;9.30;2.80;;;;;;;33.33;30.40;100464.75;127131;1304;114901;-63
2023/07/06 08:57:58;;;;;;;5.60;2.90;;;;;;;33.09;29.92;100461.38;125588;1320;120445;-65
2023/07/06 09:02:00;;;;;;;5.80;3.30;;;;;;;32.91;30.00;100462.61;125153;1320;114829;-66
2023/07/06 09:10:01;;;;;;;;;;;;;;;;;;;;;
2023/07/06 09:14:16;;;;;;;4.50;3.50;;;;;;;32.66;29.37;100461.58;129213;1269;120340;-66
2023/07/06 09:17:59;;;;;;;6.30;3.20;;;;;;;32.52;29.67;100461.63;128287;1273;114977;-66
2023/07/06 09:22:03;;;;;;;4.80;3.40;;;;;;;32.55;29.89;100464.55;127933;1280;114760;-65
2023/07/06 09:25:46;;;;;;;4.90;3.10;;;;;;;32.46;29.56;100467.98;123387;1296;114973;-65
2023/07/06 09:29:37;;;;;;;;;;;;;;;;;;;;;
2023/07/06 09:33:10;;;;;;;;;;;;;;;;;;;;;
2023/07/06 09:37:10;;;;;;;;;;;;;;;;;;;;;
2023/07/06 09:40:46;;;;;;;4.00;2.80;;;;;;;31.62;29.40;100466.17;126560;1303;114969;-66
2023/07/06 09:44:18;;;;;;;;;;;;;;;31.46;29.70;100470.11;125970;1301;115047;-64
2023/07/06 09:47:45;;;;;;;2.90;2.50;;;;;;;31.34;29.34;100470.09;126352;1290;114963;-65
2023/07/06 09:50:53;;;;;;;4.10;3.10;;;;;;;31.10;29.03;100468.89;126508;1296;115028;-66
2023/07/06 09:54:40;;;;;;;5.30;3.00;;;;;;;30.86;29.34;100466.29;126160;1306;119463;-66
2023/07/06 09:57:54;;;;;;;5.00;3.30;;;;;;;30.59;29.53;100468.78;126782;1287;114878;-65
2023/07/06 10:01:30;;;;;;;;;;;;;;;;;;;;;
2023/07/06 10:05:03;;;;;;;;;;;;;;;;;;;;;
2023/07/06 10:08:42;;;;;;;;;;;;;;;;;;;;;
2023/07/06 10:12:18;;;;;;;;;;;;;;;;;;;;;
2023/07/06 10:16:19;;;;;;;;;;;;;;;;;;;;;
2023/07/06 10:19:30;;;;;;;6.50;2.60;;;;;;;29.69;31.04;100474.17;128238;1280;114938;-65
2023/07/06 10:23:45;;;;;;;4.40;2.60;;;;;;;29.58;30.69;100475.85;128353;1273;114887;-66
2023/07/06 10:27:12;;;;;;;;;;;;;;;;;;;;;
2023/07/06 10:30:45;;;;;;;4.20;2.30;;;;;;;29.07;30.82;100475.73;127876;1300;120025;-65
2023/07/06 10:34:03;;;;;;;3.60;2.80;;;;;;;28.97;30.97;100472.39;127687;1294;115590;-65
2023/07/06 10:37:44;;;;;;;;;;;;;;;;;;;;;
2023/07/06 10:41:41;;;;;;;;;;;;;;;;;;;;;
2023/07/06 10:44:51;;;;;;;6.30;2.50;;;;;;;28.87;30.91;100462.95;127869;1299;114830;-65
2023/07/06 10:48:24;;;;;;;2.60;2.40;;;;;;;28.78;31.01;100462.07;127895;1280;119372;-66
2023/07/06 10:52:26;;;;;;;3.10;2.70;;;;;;;28.74;30.85;100460.00;127984;1277;114919;-66
2023/07/06 10:56:15;;;;;;;4.70;2.60;;;;;;;28.64;30.72;100460.37;128278;1279;114805;-66
2023/07/06 10:59:35;;;;;;;4.90;2.60;;;;;;;28.61;31.38;100462.66;128083;1297;114861;-65
2023/07/06 11:03:39;;;;;;;2.90;2.20;;;;;;;28.61;31.08;100465.08;127971;1292;114976;-66
2023/07/06 11:07:43;;;;;;;5.40;2.30;;;;;;;28.43;30.97;100469.31;128124;1274;120168;-65
2023/07/06 11:15:51;;;;;;;4.00;2.80;;;;;;;28.12;31.49;100465.67;126289;1312;114954;-66
2023/07/06 11:19:44;;;;;;;5.60;2.60;;;;;;;28.06;31.80;100461.65;125727;1300;114849;-66
2023/07/06 11:23:46;;;;;;;5.50;2.50;;;;;;;28.07;31.88;100463.16;125354;1299;114930;-65
2023/07/06 11:28:09;;;;;;;4.80;2.40;;;;;;;28.12;31.63;100461.91;125452;1301;120115;-65
2023/07/06 11:32:11;;;;;;;2.70;2.50;;;;;;;28.06;30.76;100463.83;125359;1307;115235;-65
2023/07/06 11:36:19;;;;;;;5.40;2.10;;;;;;;27.90;31.33;100461.57;125311;1321;114911;-64
2023/07/06 11:40:32;;;;;;;3.20;2.40;;;;;;;27.89;31.65;100459.39;125410;1311;116548;-66
2023/07/06 11:44:56;;;;;;;2.70;2.00;;;;;;;27.99;31.77;100459.85;125638;1311;115083;-65
2023/07/06 11:53:32;;;;;;;3.30;1.80;;;;;;;28.30;30.43;100467.69;127839;1280;114956;-65
2023/07/06 12:06:10;;;;;;;7.90;2.30;;;;;;;28.47;30.18;100456.45;127379;1303;114884;-65
2023/07/06 12:09:41;;;;;;;3.50;2.20;;;;;;;28.50;29.96;100456.49;127272;1286;120031;-66
2023/07/06 12:12:44;;;;;;;5.60;2.40;;;;;;;28.49;30.28;100456.58;127367;1302;114929;-65
2023/07/06 12:15:47;;;;;;;3.50;2.30;;;;;;;28.50;30.12;100457.55;127522;1285;115141;-65
2023/07/06 12:19:03;;;;;;;3.10;2.10;;;;;;;28.41;29.64;100453.69;127257;1303;114980;-65
2023/07/06 12:22:37;;;;;;;5.30;2.40;;;;;;;28.25;29.67;100451.23;127467;1287;115145;-64
2023/07/06 12:26:19;;;;;;;3.80;2.20;;;;;;;28.07;29.39;100448.45;127466;1302;119462;-63
2023/07/06 12:29:53;;;;;;;2.90;2.10;;;;;;;27.88;29.49;100443.66;127358;1286;115186;-64
2023/07/06 12:33:08;;;;;;;4.00;2.50;;;;;;;27.65;29.44;100439.94;127935;1296;114966;-63
2023/07/06 12:36:44;;;;;;;;;;;;;;;;;;;;;
2023/07/06 12:40:01;;;;;;;4.20;2.20;;;;;;;27.30;30.47;100433.10;128648;1285;114950;-63
2023/07/06 12:43:07;;;;;;;4.50;3.00;;;;;;;27.24;30.56;100431.58;129165;1267;120410;-64
2023/07/06 12:46:21;;;;;;;;;;;;;;;;;;;;;
2023/07/06 12:50:26;;;;;;;5.00;2.30;;;;;;;26.91;29.96;100424.74;129532;1264;114920;-65
2023/07/06 12:54:19;;;;;;;3.30;2.20;;;;;;;26.78;30.32;100424.59;129350;1276;114888;-63
2023/07/06 12:57:53;;;;;;;6.50;2.60;;;;;;;26.77;30.77;100426.55;128311;1289;114892;-66
2023/07/06 13:01:29;;;;;;;;;;;;;;;;;;;;;
2023/07/06 13:05:24;;;;;;;;;;;;;;;;;;;;;
2023/07/06 13:08:59;;;;;;;2.70;2.30;;;;;;;27.01;30.33;100427.88;128265;1280;114943;-64
2023/07/06 13:13:04;;;;;;;;;;;;;;;;;;;;;
2023/07/06 13:16:59;;;;;;;4.90;2.10;;;;;;;27.01;30.18;100429.70;127875;1299;114926;-67
2023/07/06 13:20:40;;;;;;;4.60;2.10;;;;;;;27.09;30.45;100432.75;127486;1303;118905;-64
2023/07/06 13:24:11;;;;;;;3.90;2.10;;;;;;;27.21;30.09;100430.77;127335;1286;114913;-64
2023/07/06 13:27:33;;;;;;;;;;;;;;;;;;;;;
2023/07/06 13:31:14;;;;;;;4.30;2.20;;;;;;;27.44;30.36;100422.44;127593;1300;114862;-66
2023/07/06 13:35:07;;;;;;;;;;;;;;;;;;;;;
2023/07/06 13:38:46;;;;;;;4.60;2.10;;;;;;;27.52;30.16;100417.79;128474;1270;119395;-65
2023/07/06 13:42:21;;;;;;;3.00;1.90;;;;;;;27.54;29.45;100417.64;128313;1274;115441;-64
2023/07/06 13:45:46;;;;;;;4.20;2.00;;;;;;;27.55;29.78;100417.27;128510;1273;114934;-65
2023/07/06 13:49:50;;;;;;;3.80;2.40;;;;;;;27.59;29.71;100418.02;128359;1295;114917;-63
2023/07/06 13:53:35;;;;;;;4.00;2.20;;;;;;;27.67;30.07;100416.02;128366;1294;114957;-65
2023/07/06 14:01:15;;;;;;;;;;;;;;;;;;;;;
2023/07/06 14:09:08;;;;;;;;;;;;;;;;;;;;;
2023/07/06 14:13:13;;;;;;;5.90;2.90;;;;;;;27.82;30.35;100422.51;127526;1281;119900;-64
2023/07/06 14:17:15;;;;;;;5.70;2.50;;;;;;;27.83;30.36;100418.98;126382;1293;114809;-65
2023/07/06 14:21:19;;;;;;;4.50;1.80;;;;;;;27.91;30.39;100420.16;122136;1299;5430977;-68
2023/07/06 14:25:20;;;;;;;2.70;2.10;;;;;;;27.85;30.07;100421.71;124056;1311;114930;-65
2023/07/06 14:33:56;;;;;;;5.10;2.10;;;;;;;27.60;29.78;100419.27;125750;1299;640087;-66
2023/07/06 14:42:02;;;;;;;3.80;2.70;;;;;;;27.22;30.74;100421.19;126736;1287;114836;-66
2023/07/06 14:45:55;;;;;;;;;;;;;;;;;;;;;
2023/07/06 14:49:57;;;;;;;4.90;1.90;;;;;;;26.94;30.91;100421.16;125466;1320;114957;-65
2023/07/06 14:53:22;;;;;;;4.00;2.10;;;;;;;26.75;30.67;100424.26;124496;1330;115072;-65
2023/07/06 14:57:15;;;;;;;;;;;;;;;;;;;;;
2023/07/06 15:05:34;;;;;;;2.90;2.10;;;;;;;26.36;31.52;100422.49;125884;1297;637639;-68
2023/07/06 15:09:28;;;;;;;;;;;;;;;;;;;;;
2023/07/06 15:13:32;;;;;;;2.10;1.90;;;;;;;26.30;31.89;100419.41;126199;1299;114907;-65
2023/07/06 15:17:33;;;;;;;1.90;1.80;;;;;;;26.32;31.57;100418.35;122082;1302;5441180;-65
2023/07/06 15:21:43;;;;;;;10.30;3.10;;;;;;;26.37;31.72;100418.92;124685;1311;115673;-66
2023/07/06 15:30:17;;;;;;;3.30;2.10;;;;;;;26.51;31.97;100418.89;125519;1304;639444;-65
2023/07/06 15:34:37;;;;;;;6.30;2.00;;;;;;;26.48;32.26;100417.21;127592;1294;122243;-66
2023/07/06 15:37:53;;;;;;;3.50;2.00;;;;;;;26.46;32.74;100418.27;126862;1295;114798;-69
2023/07/06 15:40:58;;;;;;;2.90;1.90;;;;;;;26.47;32.67;100419.23;123982;1312;5407032;-66
2023/07/06 15:45:02;;;;;;;4.20;2.40;;;;;;;26.48;32.32;100416.34;126870;1293;115365;-67
2023/07/06 15:48:56;;;;;;;;;;;;;;;;;;;;;
2023/07/06 15:52:58;;;;;;;3.90;2.00;;;;;;;26.46;32.67;100420.10;124009;1315;115374;-65
2023/07/06 16:00:44;;;;;;;;;;;;;;;;;;;;;
2023/07/06 16:04:49;;;;;;;5.10;1.80;;;;;;;26.15;32.35;100415.23;128373;1275;120215;-67
2023/07/06 16:11:53;;;;;;;4.40;1.70;;;;;;;25.79;32.77;100418.81;123430;1286;5423292;-65
2023/07/06 16:15:57;;;;;;;2.80;1.70;;;;;;;25.67;32.98;100419.85;128433;1276;114831;-66
2023/07/06 16:24:00;;;;;;;4.60;1.90;;;;;;;25.48;33.88;100419.35;126009;1314;114852;-67
2023/07/06 16:32:14;;;;;;;4.20;2.10;;;;;;;25.26;34.34;100422.48;125793;1298;636615;-66
2023/07/06 16:36:10;;;;;;;2.70;2.00;;;;;;;25.12;34.86;100423.80;128871;1275;128891;-66
2023/07/06 16:39:45;;;;;;;4.20;2.20;;;;;;;25.03;35.39;100425.70;127828;1296;114893;-67
2023/07/06 16:43:35;;;;;;;;;;;;;;;;;;;;;
2023/07/06 16:51:41;;;;;;;4.50;2.00;;;;;;;24.85;34.87;100425.02;124615;1322;114961;-67
2023/07/06 16:54:54;;;;;;;;;;;;;;;;;;;;;
2023/07/06 17:02:51;;;;;;;5.90;2.80;;;;;;;24.87;34.66;100430.52;126081;1306;636204;-67
2023/07/06 17:06:55;;;;;;;4.30;2.60;;;;;;;24.79;34.68;100432.64;128107;1280;128668;-67
2023/07/06 17:14:56;;;;;;;2.40;1.80;;;;;;;24.55;34.96;100436.96;128500;1275;114931;-67
2023/07/06 17:18:58;;;;;;;2.50;1.60;;;;;;;24.39;35.32;100440.71;123417;1302;115044;-68
2023/07/06 17:22:58;;;;;;;;;;;;;;;;;;;;;
2023/07/06 17:27:00;;;;;;;2.90;2.10;;;;;;;24.10;35.02;100439.36;125213;1320;115049;-67
2023/07/06 17:39:31;;;;;;;4.80;2.20;;;;;;;23.85;35.35;100446.33;128133;1278;129489;-65
2023/07/06 17:51:41;;;;;;;3.40;2.00;;;;;;;23.68;36.05;100447.50;125164;1307;115072;-58
2023/07/06 17:55:23;;;;;;;;;;;;;;;;;;;;;
2023/07/06 18:07:36;;;;;;;4.40;1.80;;;;;;;23.52;36.46;100458.34;126038;1298;636826;-60
2023/07/06 18:11:37;;;;;;;3.90;2.10;;;;;;;23.46;36.62;100455.56;128646;1272;127780;-59
2023/07/06 18:15:40;;;;;;;2.60;2.00;;;;;;;23.41;37.02;100464.09;127663;1283;115437;-63
2023/07/06 18:19:43;;;;;;;3.10;1.90;;;;;;;23.33;37.26;100464.84;123142;1284;5422030;-59
2023/07/06 18:23:44;;;;;;;2.50;1.90;;;;;;;23.24;37.74;100467.40;125317;1322;115107;-60
2023/07/06 18:27:46;;;;;;;2.40;1.80;;;;;;;23.11;38.10;100471.95;124583;1312;114985;-60
2023/07/06 18:31:47;;;;;;;4.10;2.40;;;;;;;22.99;38.75;100478.48;123854;1336;130054;-60
2023/07/06 18:40:01;;;;;;;4.50;2.70;;;;;;;22.69;40.28;100482.64;126266;1295;636511;-59
2023/07/06 18:43:53;;;;;;;;;;;;;;;;;;;;;
2023/07/06 18:47:57;;;;;;;6.70;3.60;;;;;;;22.27;41.76;100489.55;127933;1280;115172;-61
2023/07/06 18:51:34;;;;;;;5.70;2.70;;;;;;;22.07;42.11;100499.26;125127;1292;5462513;-60
2023/07/06 18:54:35;;;;;;;5.20;2.60;;;;;;;21.90;42.63;100501.07;125699;1301;114946;-60
2023/07/06 18:58:35;;;;;;;;;;;;;;;;;;;;;
2023/07/06 19:02:17;;;;;;;3.40;2.70;;;;;;;21.52;43.77;100515.48;123837;1315;114971;-60
2023/07/06 19:05:50;;;;;;;4.20;2.80;;;;;;;21.36;44.12;100519.27;123957;1315;128616;-60
2023/07/06 19:14:17;;;;;;;5.80;3.40;;;;;;;20.95;45.09;100525.55;126213;1295;636092;-60
2023/07/06 19:18:16;;;;;;;12.40;4.40;;;;;;;20.71;45.48;100526.70;128630;1278;128360;-58
2023/07/06 19:22:19;;;;;;;10.10;3.90;;;;;;;20.51;45.89;100538.65;127168;1287;115076;-60
2023/07/06 19:26:23;;;;;;;;;;;;;;;;;;;;;
2023/07/06 19:30:26;;;;;;;10.40;4.10;;;;;;;20.12;46.94;100551.13;124753;1311;114898;-59
2023/07/06 19:34:28;;;;;;;5.50;3.10;;;;;;;19.92;47.58;100559.33;124528;1322;114919;-61
2023/07/06 19:38:26;;;;;;;;;;;;;;;;;;;;;
2023/07/06 19:42:47;;;;;;;5.70;3.80;;;;;;;19.55;48.50;100565.20;126128;1292;636196;-60
2023/07/06 19:46:51;;;;;;;6.90;3.30;;;;;;;19.36;49.09;100570.11;128341;1277;128946;-59
2023/07/06 19:50:47;;;;;;;6.50;3.10;;;;;;;19.19;49.52;100579.09;127144;1306;115406;-58
2023/07/06 19:54:43;;;;;;;9.00;3.10;;;;;;;19.03;50.06;100577.84;122849;1287;5763473;-59
2023/07/06 19:58:39;;;;;;;;;;;;;;;;;;;;;
2023/07/06 20:01:50;;;;;;;5.30;3.10;;;;;;;18.68;51.35;100583.10;125427;1312;114890;-58
2023/07/06 20:05:34;;;;;;;;;;;;;;;;;;;;;
2023/07/06 20:17:58;;;;;;;;;;;;;;;;;;;;;
2023/07/06 20:21:53;;;;;;;;;;;;;;;;;;;;;
2023/07/06 20:25:49;;;;;;;8.80;3.60;;;;;;;17.88;54.19;100612.31;121963;1299;5412423;-59
2023/07/06 20:29:51;;;;;;;7.60;4.30;;;;;;;17.78;54.61;100612.73;125561;1301;116429;-59
2023/07/06 20:33:51;;;;;;;6.10;4.00;;;;;;;17.66;55.05;100613.77;124654;1328;114958;-68
2023/07/06 20:37:51;;;;;;;8.10;4.50;;;;;;;17.55;55.28;100615.16;124114;1314;129125;-68
2023/07/06 20:48:56;;;;;;;11.70;4.70;;;;;;;17.20;56.29;100624.20;129060;1282;128678;-67
2023/07/06 20:52:47;;;;;;;;;;;;;;;;;;;;;
2023/07/06 20:56:30;;;;;;;7.80;4.70;;;;;;;16.99;56.92;100630.34;128542;1272;114874;-70
2023/07/06 21:00:27;;;;;;;9.50;4.50;;;;;;;16.88;57.31;100636.14;124550;1277;5426942;-70
2023/07/06 21:04:28;;;;;;;;;;;;;;;;;;;;;
2023/07/06 21:07:37;;;;;;;7.90;4.80;;;;;;;16.66;58.05;100638.04;127636;1296;114914;-66
2023/07/06 21:11:30;;;;;;;7.70;5.50;;;;;;;16.59;58.12;100639.45;127325;1293;128862;-67
2023/07/06 21:14:43;;;;;;;8.90;5.00;;;;;;;16.49;58.73;100642.25;126093;1297;115428;-66
2023/07/06 21:17:52;;;;;;;7.00;4.40;;;;;;;16.41;59.04;100641.90;125919;1316;114876;-69
2023/07/06 21:20:58;;;;;;;13.40;5.80;;;;;;;16.34;59.39;100642.41;125969;1311;114961;-63
2023/07/06 21:24:20;;;;;;;11.90;5.90;;;;;;;16.25;59.61;100644.98;126047;1295;114883;-68
2023/07/06 21:27:27;;;;;;;9.90;5.20;;;;;;;16.17;59.95;100648.78;126355;1294;127729;-68
2023/07/06 21:30:34;;;;;;;9.20;5.20;;;;;;;16.09;60.03;100654.71;126301;1294;115732;-66
2023/07/06 21:33:44;;;;;;;6.10;4.70;;;;;;;16.02;60.43;100656.81;126926;1289;114970;-65
2023/07/06 21:37:36;;;;;;;9.70;5.10;;;;;;;15.93;60.74;100652.84;127113;1301;115023;-69
2023/07/06 21:40:36;;;;;;;10.60;4.80;;;;;;;15.85;61.39;100660.05;126880;1301;114830;-68
2023/07/06 21:44:19;;;;;;;10.20;5.10;;;;;;;15.78;61.25;100661.61;127261;1280;114954;-64
2023/07/06 21:47:51;;;;;;;8.40;5.10;;;;;;;15.70;61.87;100665.20;127400;1286;115418;-70
2023/07/06 21:51:03;;;;;;;6.60;4.60;;;;;;;15.62;62.08;100673.98;127193;1291;114823;-70
2023/07/06 21:54:19;;;;;;;8.20;4.80;;;;;;;15.54;62.35;100671.77;128671;1274;114893;-69
2023/07/06 21:57:27;;;;;;;7.90;4.50;;;;;;;15.49;62.64;100672.10;128611;1269;114881;-70
2023/07/06 22:00:58;;;;;;;6.70;4.70;;;;;;;15.42;62.67;100674.31;128694;1269;128409;-69
2023/07/06 22:04:24;;;;;;;8.70;4.80;;;;;;;15.36;63.10;100679.59;128704;1292;115232;-66
2023/07/06 22:07:52;;;;;;;6.70;4.90;;;;;;;15.29;63.39;100675.85;128449;1269;114869;-69
2023/07/06 22:11:27;;;;;;;6.30;3.90;;;;;;;15.25;63.53;100679.57;128570;1282;114989;-68
2023/07/06 22:14:52;;;;;;;10.80;5.40;;;;;;;15.19;63.74;100678.50;128408;1289;115380;-70
2023/07/06 22:18:17;;;;;;;6.00;5.30;;;;;;;15.13;63.99;100679.77;128263;1290;129142;-69
2023/07/06 22:21:41;;;;;;;7.60;4.60;;;;;;;15.06;64.41;100684.17;128642;1290;115014;-68
2023/07/06 22:25:24;;;;;;;6.70;4.50;;;;;;;14.98;64.53;100683.89;129000;1267;114982;-69
2023/07/06 22:29:19;;;;;;;;;;;;;;;;;;;;;
2023/07/06 22:33:24;;;;;;;8.10;5.10;;;;;;;14.87;65.16;100684.04;128525;1292;115044;-68
2023/07/06 22:36:58;;;;;;;5.90;4.50;;;;;;;14.81;65.39;100684.79;127266;1285;128758;-68
2023/07/06 22:40:43;;;;;;;;;;;;;;;;;;;;;
2023/07/06 22:48:35;;;;;;;9.70;5.30;;;;;;;14.67;66.19;100689.38;126262;1295;635864;-69
2023/07/06 22:52:28;;;;;;;10.00;6.20;;;;;;;14.60;66.21;100686.74;128762;1279;128986;-68
2023/07/06 22:56:22;;;;;;;8.40;5.30;;;;;;;14.54;66.54;100692.33;128461;1273;115438;-66
2023/07/06 23:00:23;;;;;;;;;;;;;;;;;;;;;
2023/07/06 23:04:09;;;;;;;;;;;;;;;;;;;;;
2023/07/06 23:08:14;;;;;;;7.30;5.20;;;;;;;14.38;67.23;100702.60;126346;1295;115283;-67
2023/07/06 23:12:14;;;;;;;10.60;5.20;;;;;;;14.32;67.59;100705.97;125433;1322;114961;-68
2023/07/06 23:20:24;;;;;;;11.50;6.40;;;;;;;14.24;68.04;100705.35;126288;1291;635780;-68
2023/07/06 23:24:17;;;;;;;9.00;6.00;;;;;;;14.18;68.22;100705.52;128298;1296;129025;-67
2023/07/06 23:28:43;;;;;;;9.10;5.50;;;;;;;14.13;68.40;100713.90;127682;1297;115435;-70
2023/07/06 23:32:43;;;;;;;16.40;6.20;;;;;;;14.08;68.67;100718.53;122615;1289;5446196;-69
2023/07/06 23:36:39;;;;;;;7.40;5.80;;;;;;;14.02;68.87;100723.01;125712;1318;114867;-68
2023/07/06 23:40:39;;;;;;;;;;;;;;;;;;;;;
2023/07/06 23:57:13;;;;;;;8.60;5.40;;;;;;;13.78;70.11;100727.75;126654;1290;114928;-67
